createdAt,value
2017-02-22T00:00:04.325Z,63.09
2017-02-22T00:00:45.119Z,63.28
2017-02-22T00:01:25.989Z,62.81
2017-02-22T00:02:06.745Z,62.81
2017-02-22T00:02:47.537Z,63.19
2017-02-22T00:03:28.256Z,63.09
2017-02-22T00:04:09.033Z,62.9
2017-02-22T00:04:49.778Z,62.99
2017-02-22T00:05:30.510Z,62.9
2017-02-22T00:06:11.271Z,62.99
2017-02-22T00:06:52.069Z,63.19
2017-02-22T00:07:32.856Z,63.38
2017-02-22T00:08:13.612Z,63.57
2017-02-22T00:08:54.358Z,63.48
2017-02-22T00:09:35.170Z,63.48
2017-02-22T00:10:15.983Z,63.48
2017-02-22T00:10:56.759Z,63.48
2017-02-22T00:11:37.518Z,63.19
2017-02-22T00:12:18.252Z,63.48
2017-02-22T00:12:58.993Z,63.67
2017-02-22T00:13:39.782Z,63.19
2017-02-22T00:14:20.570Z,63.19
2017-02-22T00:15:01.323Z,63.19
2017-02-22T00:15:42.209Z,63.38
2017-02-22T00:16:22.954Z,63.28
2017-02-22T00:17:03.713Z,63.67
2017-02-22T00:17:44.496Z,63.48
2017-02-22T00:18:25.246Z,63.57
2017-02-22T00:19:05.991Z,63.28
2017-02-22T00:19:46.810Z,63.48
2017-02-22T00:20:27.556Z,63.67
2017-02-22T00:21:08.350Z,63.67
2017-02-22T00:21:49.107Z,63.67
2017-02-22T00:22:29.918Z,63.67
2017-02-22T00:23:10.823Z,63.67
2017-02-22T00:23:51.578Z,63.19
2017-02-22T00:24:32.409Z,63.48
2017-02-22T00:25:13.140Z,63.67
2017-02-22T00:25:53.908Z,63.67
2017-02-22T00:26:34.650Z,63.76
2017-02-22T00:27:15.445Z,63.67
2017-02-22T00:27:56.167Z,63.67
2017-02-22T00:28:36.958Z,63.67
2017-02-22T00:29:17.670Z,63.86
2017-02-22T00:29:58.425Z,63.57
2017-02-22T00:30:39.176Z,63.57
2017-02-22T00:31:19.903Z,63.57
2017-02-22T00:32:00.666Z,63.48
2017-02-22T00:32:41.378Z,63.67
2017-02-22T00:33:22.250Z,63.76
2017-02-22T00:34:03.002Z,63.57
2017-02-22T00:34:43.770Z,63.76
2017-02-22T00:35:24.584Z,63.57
2017-02-22T00:36:05.414Z,63.28
2017-02-22T00:36:46.178Z,63.67
2017-02-22T00:37:26.954Z,63.57
2017-02-22T00:38:07.627Z,63.57
2017-02-22T00:38:48.415Z,63.67
2017-02-22T00:39:29.127Z,63.28
2017-02-22T00:40:09.918Z,63.67
2017-02-22T00:40:51.305Z,63.48
2017-02-22T00:41:32.077Z,63.67
2017-02-22T00:42:12.824Z,63.28
2017-02-22T00:42:53.587Z,63.76
2017-02-22T00:43:34.257Z,63.57
2017-02-22T00:44:14.987Z,63.57
2017-02-22T00:44:55.713Z,63.48
2017-02-22T00:45:36.456Z,63.67
2017-02-22T00:46:17.234Z,63.67
2017-02-22T00:46:57.993Z,63.48
2017-02-22T00:47:38.786Z,63.67
2017-02-22T00:48:19.538Z,63.57
2017-02-22T00:49:00.340Z,63.57
2017-02-22T00:49:41.124Z,63.57
2017-02-22T00:50:21.910Z,63.48
2017-02-22T00:51:02.649Z,63.76
2017-02-22T00:51:43.474Z,64.15
2017-02-22T00:52:24.318Z,64.15
2017-02-22T00:53:04.998Z,64.15
2017-02-22T00:53:45.822Z,63.86
2017-02-22T00:54:26.576Z,64.05
2017-02-22T00:55:07.273Z,64.05
2017-02-22T00:55:48.047Z,63.76
2017-02-22T00:56:28.843Z,64.15
2017-02-22T00:57:09.628Z,64.05
2017-02-22T00:57:50.381Z,64.15
2017-02-22T00:58:31.142Z,64.05
2017-02-22T00:59:11.846Z,64.34
2017-02-22T00:59:52.626Z,63.86
2017-02-22T01:00:33.384Z,63.96
2017-02-22T01:01:14.163Z,64.15
2017-02-22T01:01:54.925Z,63.57
2017-02-22T01:02:35.706Z,63.76
2017-02-22T01:03:16.474Z,63.67
2017-02-22T01:03:57.178Z,63.57
2017-02-22T01:04:37.954Z,63.48
2017-02-22T01:05:18.740Z,63.57
2017-02-22T01:05:59.425Z,63.57
2017-02-22T01:06:40.167Z,63.57
2017-02-22T01:07:20.972Z,63.38
2017-02-22T01:08:01.770Z,63.57
2017-02-22T01:08:42.556Z,63.57
2017-02-22T01:09:23.361Z,63.76
2017-02-22T01:10:04.189Z,63.76
2017-02-22T01:10:44.914Z,64.15
2017-02-22T01:11:25.678Z,64.15
2017-02-22T01:12:06.368Z,64.25
2017-02-22T01:12:47.057Z,63.76
2017-02-22T01:13:27.792Z,63.76
2017-02-22T01:14:08.572Z,64.05
2017-02-22T01:14:49.256Z,63.96
2017-02-22T01:15:30.060Z,63.86
2017-02-22T01:16:10.780Z,64.15
2017-02-22T01:16:51.640Z,63.86
2017-02-22T01:17:32.471Z,64.15
2017-02-22T01:18:13.164Z,63.86
2017-02-22T01:18:53.929Z,64.15
2017-02-22T01:19:34.631Z,64.15
2017-02-22T01:20:15.359Z,64.05
2017-02-22T01:20:56.064Z,64.05
2017-02-22T01:21:36.845Z,63.96
2017-02-22T01:22:17.584Z,63.86
2017-02-22T01:22:58.335Z,64.05
2017-02-22T01:23:39.053Z,64.34
2017-02-22T01:24:19.771Z,64.05
2017-02-22T01:25:00.582Z,64.05
2017-02-22T01:25:41.310Z,64.25
2017-02-22T01:26:22.068Z,64.15
2017-02-22T01:27:02.804Z,63.76
2017-02-22T01:27:43.587Z,63.76
2017-02-22T01:28:24.339Z,64.25
2017-02-22T01:29:05.089Z,64.15
2017-02-22T01:29:45.929Z,64.43
2017-02-22T01:30:26.641Z,64.34
2017-02-22T01:31:07.367Z,64.15
2017-02-22T01:31:48.097Z,64.05
2017-02-22T01:32:29.007Z,64.22
2017-02-22T01:33:09.703Z,63.96
2017-02-22T01:33:50.456Z,64.22
2017-02-22T01:34:31.185Z,63.83
2017-02-22T01:35:11.918Z,63.96
2017-02-22T01:35:52.722Z,63.67
2017-02-22T01:36:33.472Z,63.86
2017-02-22T01:37:14.199Z,64.25
2017-02-22T01:37:54.966Z,64.15
2017-02-22T01:38:35.753Z,64.05
2017-02-22T01:39:16.585Z,64.25
2017-02-22T01:39:57.382Z,64.25
2017-02-22T01:40:38.122Z,64.34
2017-02-22T01:41:25.837Z,64.63
2017-02-22T01:42:06.592Z,64.25
2017-02-22T01:42:47.342Z,64.25
2017-02-22T01:43:28.035Z,64.43
2017-02-22T01:44:08.787Z,64.4
2017-02-22T01:44:49.514Z,64.25
2017-02-22T01:45:30.289Z,64.43
2017-02-22T01:46:11.094Z,64.43
2017-02-22T01:46:51.866Z,64.72
2017-02-22T01:47:32.603Z,64.25
2017-02-22T01:48:13.407Z,64.72
2017-02-22T01:48:54.119Z,64.43
2017-02-22T01:49:34.780Z,64.43
2017-02-22T01:50:15.572Z,64.53
2017-02-22T01:50:56.323Z,64.25
2017-02-22T01:51:36.968Z,64.43
2017-02-22T01:52:17.723Z,64.43
2017-02-22T01:52:58.434Z,64.43
2017-02-22T01:53:39.233Z,64.34
2017-02-22T01:54:20.006Z,64.63
2017-02-22T01:55:00.771Z,64.5
2017-02-22T01:55:41.579Z,64.72
2017-02-22T01:56:22.287Z,64.92
2017-02-22T01:57:03.038Z,64.63
2017-02-22T01:57:43.886Z,64.92
2017-02-22T01:58:24.672Z,64.63
2017-02-22T01:59:05.379Z,64.82
2017-02-22T01:59:46.166Z,65.01
2017-02-22T02:00:27.005Z,65.01
2017-02-22T02:01:07.765Z,64.92
2017-02-22T02:01:48.529Z,64.53
2017-02-22T02:02:29.349Z,65.01
2017-02-22T02:03:10.095Z,65.11
2017-02-22T02:03:50.815Z,64.92
2017-02-22T02:04:31.584Z,65.01
2017-02-22T02:05:12.291Z,64.63
2017-02-22T02:05:53.046Z,64.53
2017-02-22T02:06:33.860Z,65.11
2017-02-22T02:07:14.550Z,64.82
2017-02-22T02:07:55.369Z,65.01
2017-02-22T02:08:36.174Z,64.92
2017-02-22T02:09:17.042Z,64.53
2017-02-22T02:09:57.765Z,64.92
2017-02-22T02:10:38.477Z,65.2
2017-02-22T02:11:26.238Z,65.11
2017-02-22T02:12:07.001Z,64.92
2017-02-22T02:12:47.722Z,64.92
2017-02-22T02:13:28.486Z,65.01
2017-02-22T02:14:09.230Z,65.11
2017-02-22T02:14:50.028Z,65.2
2017-02-22T02:15:30.842Z,65.11
2017-02-22T02:16:11.656Z,64.72
2017-02-22T02:16:52.398Z,65.2
2017-02-22T02:17:33.075Z,65.2
2017-02-22T02:18:13.855Z,65.2
2017-02-22T02:18:54.576Z,65.2
2017-02-22T02:19:35.345Z,65.2
2017-02-22T02:20:16.092Z,65.2
2017-02-22T02:20:56.856Z,65.11
2017-02-22T02:21:37.627Z,64.92
2017-02-22T02:22:18.375Z,65.11
2017-02-22T02:22:59.129Z,65.01
2017-02-22T02:23:39.873Z,64.92
2017-02-22T02:24:20.700Z,64.53
2017-02-22T02:25:01.475Z,64.72
2017-02-22T02:25:42.270Z,65.11
2017-02-22T02:26:23.032Z,65.2
2017-02-22T02:27:03.735Z,64.72
2017-02-22T02:27:44.527Z,65.11
2017-02-22T02:28:25.297Z,65.2
2017-02-22T02:29:06.004Z,64.92
2017-02-22T02:29:46.823Z,64.82
2017-02-22T02:30:27.588Z,65.11
2017-02-22T02:31:08.345Z,65.11
2017-02-22T02:31:49.043Z,64.92
2017-02-22T02:32:29.768Z,65.08
2017-02-22T02:33:10.601Z,65.2
2017-02-22T02:33:51.316Z,64.79
2017-02-22T02:34:32.074Z,65.11
2017-02-22T02:35:12.817Z,64.92
2017-02-22T02:35:53.572Z,64.72
2017-02-22T02:36:34.312Z,65.4
2017-02-22T02:37:15.129Z,65.59
2017-02-22T02:37:55.927Z,65.69
2017-02-22T02:38:36.722Z,65.2
2017-02-22T02:39:17.422Z,64.89
2017-02-22T02:39:58.235Z,65.75
2017-02-22T02:40:39.034Z,65.11
2017-02-22T02:41:20.558Z,64.92
2017-02-22T02:42:01.321Z,64.98
2017-02-22T02:42:42.019Z,65.36
2017-02-22T02:43:22.838Z,64.89
2017-02-22T02:44:03.538Z,65.56
2017-02-22T02:44:44.303Z,65.46
2017-02-22T02:45:25.053Z,64.98
2017-02-22T02:46:05.832Z,65.17
2017-02-22T02:46:46.582Z,65.27
2017-02-22T02:47:27.315Z,65.11
2017-02-22T02:48:08.068Z,65.08
2017-02-22T02:48:48.908Z,65.08
2017-02-22T02:49:29.617Z,65.59
2017-02-22T02:50:10.422Z,65.01
2017-02-22T02:50:51.161Z,65.27
2017-02-22T02:51:31.925Z,65.49
2017-02-22T02:52:12.660Z,65.49
2017-02-22T02:52:53.391Z,65.36
2017-02-22T02:53:34.161Z,65.2
2017-02-22T02:54:14.935Z,65.36
2017-02-22T02:54:55.708Z,65.49
2017-02-22T02:55:36.442Z,65.56
2017-02-22T02:56:17.185Z,65.59
2017-02-22T02:56:58.032Z,64.98
2017-02-22T02:57:38.812Z,65.4
2017-02-22T02:58:19.558Z,65.49
2017-02-22T02:59:00.338Z,65.97
2017-02-22T02:59:41.074Z,65.49
2017-02-22T03:00:21.857Z,65.69
2017-02-22T03:01:02.562Z,65.3
2017-02-22T03:01:43.364Z,65.11
2017-02-22T03:02:24.127Z,65.46
2017-02-22T03:03:04.812Z,65.27
2017-02-22T03:03:45.586Z,65.27
2017-02-22T03:04:26.333Z,65.17
2017-02-22T03:05:07.063Z,65.27
2017-02-22T03:05:47.851Z,65.46
2017-02-22T03:06:28.615Z,65.08
2017-02-22T03:07:09.343Z,65.17
2017-02-22T03:07:50.054Z,64.98
2017-02-22T03:08:30.767Z,65.08
2017-02-22T03:09:11.493Z,65.08
2017-02-22T03:09:52.150Z,64.98
2017-02-22T03:10:32.888Z,64.98
2017-02-22T03:11:13.614Z,65.08
2017-02-22T03:11:54.437Z,65.08
2017-02-22T03:12:35.216Z,65.17
2017-02-22T03:13:16.058Z,64.98
2017-02-22T03:13:56.783Z,65.56
2017-02-22T03:14:37.477Z,65.08
2017-02-22T03:15:18.247Z,65.36
2017-02-22T03:15:58.959Z,65.46
2017-02-22T03:16:39.779Z,65.46
2017-02-22T03:17:20.555Z,65.17
2017-02-22T03:18:01.281Z,65.27
2017-02-22T03:18:42.065Z,65.17
2017-02-22T03:19:22.761Z,65.46
2017-02-22T03:20:03.517Z,65.27
2017-02-22T03:20:44.301Z,65.36
2017-02-22T03:21:25.014Z,65.46
2017-02-22T03:22:05.763Z,65.27
2017-02-22T03:22:46.531Z,65.46
2017-02-22T03:23:27.226Z,65.27
2017-02-22T03:24:08.035Z,65.27
2017-02-22T03:24:48.811Z,65.36
2017-02-22T03:25:29.571Z,65.56
2017-02-22T03:26:10.308Z,65.56
2017-02-22T03:26:51.065Z,65.36
2017-02-22T03:27:31.846Z,65.08
2017-02-22T03:28:12.567Z,65.36
2017-02-22T03:28:53.350Z,65.56
2017-02-22T03:29:34.139Z,65.46
2017-02-22T03:30:14.904Z,65.17
2017-02-22T03:30:55.772Z,65.08
2017-02-22T03:31:36.544Z,65.27
2017-02-22T03:32:17.314Z,65.56
2017-02-22T03:32:58.095Z,65.65
2017-02-22T03:33:39.644Z,65.27
2017-02-22T03:34:20.389Z,65.36
2017-02-22T03:35:01.085Z,65.17
2017-02-22T03:35:41.857Z,65.08
2017-02-22T03:36:22.569Z,65.27
2017-02-22T03:37:03.361Z,65.08
2017-02-22T03:37:44.167Z,65.08
2017-02-22T03:38:24.920Z,65.36
2017-02-22T03:39:05.695Z,65.08
2017-02-22T03:39:46.513Z,65.17
2017-02-22T03:40:27.389Z,65.27
2017-02-22T03:41:08.134Z,64.98
2017-02-22T03:42:58.288Z,64.79
2017-02-22T03:43:39.032Z,65.46
2017-02-22T03:44:19.789Z,65.08
2017-02-22T03:45:00.616Z,65.46
2017-02-22T03:45:41.458Z,65.36
2017-02-22T03:46:22.190Z,65.46
2017-02-22T03:47:02.897Z,65.36
2017-02-22T03:47:43.672Z,65.94
2017-02-22T03:48:24.435Z,65.46
2017-02-22T03:49:05.223Z,66.03
2017-02-22T03:49:45.915Z,65.75
2017-02-22T03:50:26.755Z,65.84
2017-02-22T03:51:07.497Z,65.75
2017-02-22T03:51:48.222Z,65.56
2017-02-22T03:52:29.099Z,65.56
2017-02-22T03:53:09.852Z,65.75
2017-02-22T03:53:50.635Z,65.75
2017-02-22T03:54:31.465Z,65.65
2017-02-22T03:55:12.193Z,66.13
2017-02-22T03:55:53.003Z,65.94
2017-02-22T03:56:33.743Z,65.75
2017-02-22T03:57:14.534Z,65.84
2017-02-22T03:57:55.307Z,65.65
2017-02-22T03:58:36.113Z,65.75
2017-02-22T03:59:16.877Z,65.75
2017-02-22T03:59:57.573Z,65.75
2017-02-22T04:00:38.334Z,65.84
2017-02-22T04:01:19.139Z,65.94
2017-02-22T04:01:59.823Z,65.75
2017-02-22T04:02:40.543Z,65.84
2017-02-22T04:03:21.283Z,65.56
2017-02-22T04:04:02.029Z,65.56
2017-02-22T04:04:42.774Z,65.65
2017-02-22T04:05:23.584Z,65.84
2017-02-22T04:06:04.299Z,65.84
2017-02-22T04:06:45.040Z,65.65
2017-02-22T04:07:25.797Z,65.46
2017-02-22T04:08:06.663Z,65.84
2017-02-22T04:08:47.492Z,65.75
2017-02-22T04:09:28.275Z,65.56
2017-02-22T04:10:09.077Z,65.94
2017-02-22T04:10:49.802Z,65.65
2017-02-22T04:11:30.652Z,65.46
2017-02-22T04:12:11.319Z,65.56
2017-02-22T04:12:52.106Z,66.03
2017-02-22T04:13:32.943Z,66.13
2017-02-22T04:14:13.697Z,65.56
2017-02-22T04:14:54.417Z,65.84
2017-02-22T04:15:35.166Z,65.65
2017-02-22T04:16:15.999Z,65.84
2017-02-22T04:16:56.729Z,65.46
2017-02-22T04:17:37.519Z,65.75
2017-02-22T04:18:18.148Z,65.94
2017-02-22T04:18:58.910Z,65.65
2017-02-22T04:19:39.663Z,65.84
2017-02-22T04:20:20.424Z,66.03
2017-02-22T04:21:01.124Z,65.56
2017-02-22T04:21:41.914Z,65.75
2017-02-22T04:22:22.674Z,65.46
2017-02-22T04:23:03.412Z,65.46
2017-02-22T04:23:44.146Z,65.75
2017-02-22T04:24:24.964Z,65.65
2017-02-22T04:25:05.717Z,65.84
2017-02-22T04:25:46.555Z,65.65
2017-02-22T04:26:27.376Z,65.65
2017-02-22T04:27:08.159Z,65.75
2017-02-22T04:27:48.911Z,66.13
2017-02-22T04:28:29.667Z,66.13
2017-02-22T04:29:10.514Z,66.13
2017-02-22T04:29:51.288Z,65.94
2017-02-22T04:30:31.972Z,65.84
2017-02-22T04:31:12.752Z,66.13
2017-02-22T04:31:53.475Z,65.84
2017-02-22T04:32:34.229Z,66.03
2017-02-22T04:33:14.973Z,65.84
2017-02-22T04:33:55.712Z,65.84
2017-02-22T04:34:36.415Z,65.84
2017-02-22T04:35:17.133Z,65.94
2017-02-22T04:35:58.020Z,65.56
2017-02-22T04:36:38.760Z,65.75
2017-02-22T04:37:19.526Z,65.75
2017-02-22T04:38:00.297Z,65.56
2017-02-22T04:38:41.047Z,66.13
2017-02-22T04:39:21.781Z,65.65
2017-02-22T04:40:02.509Z,65.56
2017-02-22T04:40:43.224Z,65.65
2017-02-22T04:41:23.964Z,65.84
2017-02-22T04:42:04.703Z,65.56
2017-02-22T04:42:45.511Z,65.75
2017-02-22T04:43:26.329Z,66.23
2017-02-22T04:44:06.990Z,65.84
2017-02-22T04:44:47.726Z,66.33
2017-02-22T04:45:28.488Z,66.42
2017-02-22T04:46:09.136Z,66.13
2017-02-22T04:46:49.954Z,66.52
2017-02-22T04:47:30.733Z,66.52
2017-02-22T04:48:11.439Z,66.42
2017-02-22T04:48:52.284Z,66.33
2017-02-22T04:49:33.015Z,66.52
2017-02-22T04:50:13.822Z,66.52
2017-02-22T04:50:54.497Z,66.52
2017-02-22T04:51:35.335Z,66.13
2017-02-22T04:52:16.116Z,66.23
2017-02-22T04:52:56.902Z,66.42
2017-02-22T04:53:37.673Z,66.52
2017-02-22T04:54:18.457Z,66.33
2017-02-22T04:54:59.180Z,65.84
2017-02-22T04:55:39.914Z,65.94
2017-02-22T04:56:20.585Z,65.84
2017-02-22T04:57:01.428Z,66.03
2017-02-22T04:57:42.255Z,66.03
2017-02-22T04:58:23.032Z,66.33
2017-02-22T04:59:03.780Z,66.33
2017-02-22T04:59:44.572Z,66.23
2017-02-22T05:00:25.267Z,65.75
2017-02-22T05:01:06.015Z,65.94
2017-02-22T05:01:46.798Z,65.75
2017-02-22T05:02:27.540Z,66.13
2017-02-22T05:03:08.295Z,65.56
2017-02-22T05:03:49.047Z,65.84
2017-02-22T05:04:29.863Z,66.13
2017-02-22T05:05:10.631Z,66.33
2017-02-22T05:05:51.416Z,65.75
2017-02-22T05:06:32.186Z,66.03
2017-02-22T05:07:12.966Z,66.23
2017-02-22T05:07:53.631Z,65.94
2017-02-22T05:08:34.294Z,66.13
2017-02-22T05:09:15.094Z,66.23
2017-02-22T05:09:55.948Z,66.13
2017-02-22T05:10:36.710Z,66.03
2017-02-22T05:11:17.456Z,65.75
2017-02-22T05:11:58.170Z,66.13
2017-02-22T05:12:38.998Z,66.03
2017-02-22T05:13:19.795Z,65.75
2017-02-22T05:14:00.529Z,65.75
2017-02-22T05:14:41.417Z,66.13
2017-02-22T05:15:22.098Z,66.33
2017-02-22T05:16:02.978Z,66.52
2017-02-22T05:16:43.680Z,66.52
2017-02-22T05:17:24.401Z,66.52
2017-02-22T05:18:05.147Z,66.42
2017-02-22T05:18:46.004Z,66.52
2017-02-22T05:19:26.809Z,66.52
2017-02-22T05:20:07.613Z,66.42
2017-02-22T05:20:48.361Z,66.42
2017-02-22T05:21:29.145Z,66.23
2017-02-22T05:22:09.798Z,66.23
2017-02-22T05:22:50.609Z,66.13
2017-02-22T05:23:31.315Z,66.23
2017-02-22T05:24:12.076Z,66.23
2017-02-22T05:24:52.793Z,66.42
2017-02-22T05:25:33.537Z,66.33
2017-02-22T05:26:14.266Z,66.42
2017-02-22T05:26:55.052Z,66.42
2017-02-22T05:27:35.830Z,66.42
2017-02-22T05:28:16.692Z,66.03
2017-02-22T05:28:57.434Z,66.13
2017-02-22T05:29:38.167Z,66.42
2017-02-22T05:30:18.977Z,66.33
2017-02-22T05:30:59.698Z,66.33
2017-02-22T05:31:40.415Z,66.33
2017-02-22T05:32:21.217Z,66.52
2017-02-22T05:33:01.955Z,66.23
2017-02-22T05:33:42.757Z,66.03
2017-02-22T05:34:23.551Z,66.52
2017-02-22T05:35:04.320Z,66.03
2017-02-22T05:35:45.084Z,66.03
2017-02-22T05:36:25.843Z,66.42
2017-02-22T05:37:06.573Z,66.33
2017-02-22T05:37:47.347Z,66.23
2017-02-22T05:38:28.073Z,66.52
2017-02-22T05:39:08.864Z,66.03
2017-02-22T05:39:49.656Z,66.13
2017-02-22T05:40:30.513Z,66.42
2017-02-22T05:41:11.223Z,66.42
2017-02-22T05:41:52.021Z,66.42
2017-02-22T05:42:32.762Z,66.03
2017-02-22T05:43:13.603Z,66.23
2017-02-22T05:43:54.646Z,66.42
2017-02-22T05:44:35.474Z,66.33
2017-02-22T05:45:16.186Z,66.42
2017-02-22T05:45:56.900Z,66.13
2017-02-22T05:46:37.726Z,66.42
2017-02-22T05:47:18.481Z,66.42
2017-02-22T05:47:59.188Z,66.42
2017-02-22T05:48:40.052Z,66.23
2017-02-22T05:49:20.791Z,66.23
2017-02-22T05:50:01.574Z,66.42
2017-02-22T05:50:42.286Z,66.23
2017-02-22T05:51:23.091Z,66.23
2017-02-22T05:52:03.858Z,66.33
2017-02-22T05:52:44.666Z,66.42
2017-02-22T05:53:25.404Z,66.42
2017-02-22T05:54:06.307Z,66.23
2017-02-22T05:54:47.044Z,66.13
2017-02-22T05:55:27.775Z,66.61
2017-02-22T05:56:08.562Z,66.61
2017-02-22T05:56:49.334Z,66.13
2017-02-22T05:57:30.147Z,66.61
2017-02-22T05:58:10.918Z,66.9
2017-02-22T05:58:52.288Z,66.61
2017-02-22T05:59:33.081Z,66.61
2017-02-22T06:00:13.856Z,66.42
2017-02-22T06:00:54.594Z,65.84
2017-02-22T06:01:35.356Z,65.94
2017-02-22T06:02:16.174Z,66.71
2017-02-22T06:02:56.936Z,66.61
2017-02-22T06:03:37.693Z,66.8
2017-02-22T06:04:18.467Z,66.42
2017-02-22T06:04:59.173Z,65.94
2017-02-22T06:05:39.966Z,66.42
2017-02-22T06:06:20.739Z,66.03
2017-02-22T06:07:01.515Z,66.8
2017-02-22T06:07:42.366Z,66.52
2017-02-22T06:08:23.162Z,66.71
2017-02-22T06:09:03.918Z,66.23
2017-02-22T06:09:44.633Z,66.9
2017-02-22T06:10:25.427Z,66.42
2017-02-22T06:11:06.188Z,66.9
2017-02-22T06:11:46.958Z,66.23
2017-02-22T06:12:27.788Z,66.61
2017-02-22T06:13:08.552Z,66.52
2017-02-22T06:13:49.308Z,66.23
2017-02-22T06:14:30.181Z,66.13
2017-02-22T06:15:10.986Z,66.8
2017-02-22T06:15:51.782Z,66.61
2017-02-22T06:16:32.542Z,66.8
2017-02-22T06:17:13.377Z,66.9
2017-02-22T06:17:54.042Z,66.42
2017-02-22T06:18:34.920Z,66.52
2017-02-22T06:19:15.665Z,66.42
2017-02-22T06:19:56.457Z,66.8
2017-02-22T06:20:37.215Z,66.71
2017-02-22T06:21:18.028Z,66.42
2017-02-22T06:21:58.753Z,66.8
2017-02-22T06:22:39.452Z,66.9
2017-02-22T06:23:20.200Z,66.71
2017-02-22T06:24:01.013Z,66.61
2017-02-22T06:24:41.860Z,66.42
2017-02-22T06:25:22.593Z,66.61
2017-02-22T06:26:03.323Z,66.42
2017-02-22T06:26:44.090Z,66.77
2017-02-22T06:27:24.800Z,66.8
2017-02-22T06:28:05.575Z,66.77
2017-02-22T06:28:46.267Z,66.8
2017-02-22T06:29:27.024Z,66.23
2017-02-22T06:30:07.776Z,66.19
2017-02-22T06:30:49.111Z,66.77
2017-02-22T06:31:29.930Z,66.33
2017-02-22T06:32:10.781Z,66.23
2017-02-22T06:32:51.497Z,66.42
2017-02-22T06:33:32.295Z,66.61
2017-02-22T06:34:13.006Z,66.52
2017-02-22T06:34:53.761Z,66.8
2017-02-22T06:35:34.572Z,66.61
2017-02-22T06:36:15.294Z,66.52
2017-02-22T06:36:56.056Z,66.71
2017-02-22T06:37:36.843Z,66.61
2017-02-22T06:38:17.640Z,66.61
2017-02-22T06:38:58.444Z,66.77
2017-02-22T06:39:39.185Z,66.61
2017-02-22T06:40:19.946Z,66.49
2017-02-22T06:41:00.670Z,66.61
2017-02-22T06:41:41.445Z,66.42
2017-02-22T06:42:22.271Z,66.71
2017-02-22T06:43:02.986Z,66.39
2017-02-22T06:43:43.840Z,66.39
2017-02-22T06:44:24.569Z,66.39
2017-02-22T06:45:05.350Z,66.9
2017-02-22T06:45:46.251Z,66.58
2017-02-22T06:46:27.007Z,66.77
2017-02-22T06:47:07.742Z,66.9
2017-02-22T06:47:48.522Z,66.8
2017-02-22T06:48:29.318Z,66.77
2017-02-22T06:49:10.200Z,66.77
2017-02-22T06:49:51.001Z,66.9
2017-02-22T06:50:31.762Z,66.61
2017-02-22T06:51:12.505Z,66.52
2017-02-22T06:51:53.301Z,66.71
2017-02-22T06:52:34.036Z,66.86
2017-02-22T06:53:14.826Z,66.9
2017-02-22T06:53:55.570Z,66.86
2017-02-22T06:54:36.298Z,66.42
2017-02-22T06:55:17.069Z,66.33
2017-02-22T06:55:57.907Z,66.1
2017-02-22T06:56:38.655Z,65.75
2017-02-22T06:57:19.359Z,66.52
2017-02-22T06:58:00.166Z,66.49
2017-02-22T06:58:40.933Z,66.23
2017-02-22T06:59:21.770Z,66.13
2017-02-22T07:00:02.465Z,66.03
2017-02-22T07:00:43.256Z,66.13
2017-02-22T07:01:23.949Z,66.13
2017-02-22T07:02:04.649Z,66.39
2017-02-22T07:02:45.372Z,66.67
2017-02-22T07:03:26.209Z,66.42
2017-02-22T07:04:06.961Z,66.1
2017-02-22T07:04:47.737Z,66.03
2017-02-22T07:05:28.591Z,66.39
2017-02-22T07:06:09.319Z,66.42
2017-02-22T07:06:50.090Z,66.19
2017-02-22T07:07:30.804Z,66.03
2017-02-22T07:08:11.573Z,66.19
2017-02-22T07:08:52.340Z,65.81
2017-02-22T07:09:33.036Z,66.58
2017-02-22T07:10:13.843Z,66.49
2017-02-22T07:10:54.609Z,66.39
2017-02-22T07:11:35.411Z,65.81
2017-02-22T07:12:16.148Z,66.1
2017-02-22T07:12:56.969Z,66.1
2017-02-22T07:13:37.744Z,66.13
2017-02-22T07:14:18.542Z,66.39
2017-02-22T07:14:59.244Z,65.81
2017-02-22T07:15:39.995Z,66.9
2017-02-22T07:16:20.732Z,66.9
2017-02-22T07:17:01.501Z,66.77
2017-02-22T07:17:42.385Z,66.03
2017-02-22T07:18:23.155Z,66.1
2017-02-22T07:19:03.962Z,66.39
2017-02-22T07:19:44.625Z,66.42
2017-02-22T07:20:25.395Z,65.81
2017-02-22T07:21:06.169Z,66.39
2017-02-22T07:21:47.014Z,66.49
2017-02-22T07:22:27.717Z,66.86
2017-02-22T07:23:08.473Z,66.58
2017-02-22T07:23:49.219Z,66.52
2017-02-22T07:24:29.984Z,66.49
2017-02-22T07:25:10.779Z,66.52
2017-02-22T07:25:51.518Z,66.58
2017-02-22T07:26:32.300Z,66.19
2017-02-22T07:27:13.150Z,66.58
2017-02-22T07:27:53.971Z,66.39
2017-02-22T07:28:34.711Z,66.71
2017-02-22T07:29:15.524Z,66.52
2017-02-22T07:29:56.318Z,66.67
2017-02-22T07:30:37.073Z,66.58
2017-02-22T07:31:17.815Z,66.42
2017-02-22T07:31:58.525Z,66.13
2017-02-22T07:32:39.298Z,66.52
2017-02-22T07:33:20.112Z,66
2017-02-22T07:34:00.897Z,66.77
2017-02-22T07:34:41.672Z,65.72
2017-02-22T07:35:22.440Z,66.19
2017-02-22T07:36:03.166Z,66
2017-02-22T07:36:43.952Z,66.1
2017-02-22T07:37:24.637Z,66.1
2017-02-22T07:38:05.357Z,66.49
2017-02-22T07:38:46.131Z,66
2017-02-22T07:39:26.887Z,66.1
2017-02-22T07:40:07.646Z,66.39
2017-02-22T07:40:48.451Z,66.49
2017-02-22T07:41:29.228Z,65.72
2017-02-22T07:42:09.974Z,65.62
2017-02-22T07:42:50.734Z,65.81
2017-02-22T07:43:31.523Z,65.81
2017-02-22T07:44:12.354Z,65.43
2017-02-22T07:44:53.139Z,65.81
2017-02-22T07:45:33.860Z,66.1
2017-02-22T07:46:14.598Z,65.52
2017-02-22T07:46:55.349Z,65.33
2017-02-22T07:47:36.189Z,65.05
2017-02-22T07:48:17.056Z,65.23
2017-02-22T07:48:57.860Z,65.23
2017-02-22T07:49:38.654Z,64.85
2017-02-22T07:50:19.390Z,64.95
2017-02-22T07:51:00.195Z,64.85
2017-02-22T07:51:41.023Z,64.85
2017-02-22T07:52:21.777Z,64.95
2017-02-22T07:53:02.586Z,65.05
2017-02-22T07:53:43.311Z,65.05
2017-02-22T07:54:24.000Z,65.05
2017-02-22T07:55:04.764Z,65.14
2017-02-22T07:55:45.494Z,65.43
2017-02-22T07:56:26.290Z,65.43
2017-02-22T07:57:07.068Z,64.28
2017-02-22T07:57:47.817Z,64.56
2017-02-22T07:58:28.551Z,64.47
2017-02-22T07:59:09.266Z,64.37
2017-02-22T07:59:50.002Z,64.28
2017-02-22T08:00:30.889Z,64.09
2017-02-22T08:01:11.657Z,64.47
2017-02-22T08:01:52.371Z,64.37
2017-02-22T08:02:33.131Z,64.28
2017-02-22T08:03:13.885Z,64.47
2017-02-22T08:03:54.686Z,64.09
2017-02-22T08:04:35.414Z,64.18
2017-02-22T08:05:16.187Z,64.47
2017-02-22T08:05:56.914Z,64.37
2017-02-22T08:06:37.751Z,64.66
2017-02-22T08:07:18.493Z,64.47
2017-02-22T08:07:59.223Z,64.09
2017-02-22T08:08:40.077Z,64.66
2017-02-22T08:09:20.855Z,64.18
2017-02-22T08:10:01.531Z,63.99
2017-02-22T08:10:42.378Z,63.79
2017-02-22T08:11:23.191Z,63.89
2017-02-22T08:12:03.929Z,63.99
2017-02-22T08:12:44.746Z,63.79
2017-02-22T08:13:25.556Z,64.18
2017-02-22T08:14:06.453Z,63.99
2017-02-22T08:14:47.167Z,64.28
2017-02-22T08:15:27.936Z,64.09
2017-02-22T08:16:08.662Z,64.09
2017-02-22T08:16:49.588Z,64.09
2017-02-22T08:17:30.417Z,64.09
2017-02-22T08:18:11.238Z,63.79
2017-02-22T08:18:51.981Z,64.09
2017-02-22T08:19:32.740Z,63.6
2017-02-22T08:20:13.516Z,64.09
2017-02-22T08:20:54.217Z,63.79
2017-02-22T08:21:34.955Z,63.79
2017-02-22T08:22:15.706Z,63.51
2017-02-22T08:22:56.471Z,63.51
2017-02-22T08:23:37.181Z,63.99
2017-02-22T08:24:17.933Z,63.99
2017-02-22T08:24:58.801Z,63.89
2017-02-22T08:25:39.497Z,63.89
2017-02-22T08:26:20.278Z,63.79
2017-02-22T08:27:00.994Z,63.79
2017-02-22T08:27:41.781Z,63.99
2017-02-22T08:28:22.543Z,63.89
2017-02-22T08:29:03.318Z,64.18
2017-02-22T08:29:44.046Z,63.79
2017-02-22T08:30:24.948Z,63.99
2017-02-22T08:31:05.652Z,64.09
2017-02-22T08:31:46.408Z,63.7
2017-02-22T08:32:27.176Z,63.79
2017-02-22T08:33:07.896Z,63.7
2017-02-22T08:33:48.766Z,63.79
2017-02-22T08:34:29.439Z,63.42
2017-02-22T08:35:10.250Z,63.32
2017-02-22T08:35:51.034Z,63.32
2017-02-22T08:36:31.794Z,63.51
2017-02-22T08:37:12.618Z,63.32
2017-02-22T08:37:53.381Z,63.03
2017-02-22T08:38:34.201Z,63.25
2017-02-22T08:39:14.905Z,62.77
2017-02-22T08:39:55.656Z,62.58
2017-02-22T08:40:36.423Z,62.29
2017-02-22T08:41:17.197Z,62.19
2017-02-22T08:43:39.348Z,62.01
2017-02-22T08:44:20.161Z,60.57
2017-02-22T08:45:01.055Z,55.35
2017-02-22T08:45:41.806Z,55.07
2017-02-22T08:46:22.632Z,51.61
2017-02-22T08:47:03.384Z,50.65
2017-02-22T08:47:44.143Z,49.67
2017-02-22T08:48:24.929Z,49.48
2017-02-22T08:49:05.683Z,48.43